sensor_id;sensor_type;location;lat;lon;timestamp;pressure;altitude;pressure_sealevel;temperature;humidity
9839;BME280;4958;48.150;11.506;2023-03-11T00:02:02;94306.41;;;5.68;53.63
9839;BME280;4958;48.150;11.506;2023-03-11T00:04:52;94313.56;;;5.73;52.98
9839;BME280;4958;48.150;11.506;2023-03-11T00:08:07;94312.22;;;5.77;52.32
9839;BME280;4958;48.150;11.506;2023-03-11T00:10:59;94323.31;;;5.69;52.31
9839;BME280;4958;48.150;11.506;2023-03-11T00:20:54;94319.09;;;5.76;50.93
9839;BME280;4958;48.150;11.506;2023-03-11T00:27:02;94333.63;;;5.61;51.59
9839;BME280;4958;48.150;11.506;2023-03-11T00:30:14;94328.34;;;5.63;51.94
9839;BME280;4958;48.150;11.506;2023-03-11T00:33:17;94339.97;;;5.65;51.06
9839;BME280;4958;48.150;11.506;2023-03-11T00:50:05;94368.66;;;5.67;51.98
9839;BME280;4958;48.150;11.506;2023-03-11T00:53:11;94360.03;;;5.68;51.90
9839;BME280;4958;48.150;11.506;2023-03-11T00:55:53;94360.03;;;5.68;51.67
9839;BME280;4958;48.150;11.506;2023-03-11T00:58:47;94354.94;;;5.53;51.90
9839;BME280;4958;48.150;11.506;2023-03-11T01:01:54;94363.81;;;5.43;52.56
9839;BME280;4958;48.150;11.506;2023-03-11T01:05:10;94364.16;;;5.40;52.69
9839;BME280;4958;48.150;11.506;2023-03-11T01:16:54;94356.69;;;5.38;52.81
9839;BME280;4958;48.150;11.506;2023-03-11T01:19:32;94355.78;;;5.31;52.41
9839;BME280;4958;48.150;11.506;2023-03-11T01:25:22;94355.28;;;5.36;52.40
9839;BME280;4958;48.150;11.506;2023-03-11T01:27:58;94359.50;;;5.43;52.47
9839;BME280;4958;48.150;11.506;2023-03-11T01:31:00;94360.63;;;5.41;52.15
9839;BME280;4958;48.150;11.506;2023-03-11T01:34:00;94368.84;;;5.36;52.03
9839;BME280;4958;48.150;11.506;2023-03-11T01:46:32;94374.50;;;5.24;52.70
9839;BME280;4958;48.150;11.506;2023-03-11T01:49:36;94373.00;;;5.14;52.69
9839;BME280;4958;48.150;11.506;2023-03-11T01:52:19;94373.41;;;5.03;52.28
9839;BME280;4958;48.150;11.506;2023-03-11T01:55:16;94374.22;;;5.04;52.28
9839;BME280;4958;48.150;11.506;2023-03-11T02:04:44;94378.44;;;4.97;51.84
9839;BME280;4958;48.150;11.506;2023-03-11T02:08:01;94358.13;;;5.03;51.60
9839;BME280;4958;48.150;11.506;2023-03-11T02:11:07;94354.06;;;4.94;51.14
9839;BME280;4958;48.150;11.506;2023-03-11T02:14:49;94362.97;;;4.98;51.47
9839;BME280;4958;48.150;11.506;2023-03-11T02:17:59;94377.00;;;4.94;51.38
9839;BME280;4958;48.150;11.506;2023-03-11T02:20:51;94385.50;;;4.86;51.30
9839;BME280;4958;48.150;11.506;2023-03-11T02:24:10;94386.00;;;4.82;51.64
9839;BME280;4958;48.150;11.506;2023-03-11T02:30:21;94372.13;;;4.84;51.54
9839;BME280;4958;48.150;11.506;2023-03-11T02:33:17;94380.25;;;4.88;51.49
9839;BME280;4958;48.150;11.506;2023-03-11T02:36:34;94389.25;;;4.76;51.75
9839;BME280;4958;48.150;11.506;2023-03-11T02:39:41;94409.03;;;4.74;51.49
9839;BME280;4958;48.150;11.506;2023-03-11T02:46:56;94413.09;;;4.83;51.55
9839;BME280;4958;48.150;11.506;2023-03-11T02:53:03;94415.06;;;4.81;51.03
9839;BME280;4958;48.150;11.506;2023-03-11T02:56:17;94424.00;;;4.77;51.63
9839;BME280;4958;48.150;11.506;2023-03-11T02:59:28;94422.16;;;4.63;51.68
9839;BME280;4958;48.150;11.506;2023-03-11T03:02:16;94416.31;;;4.54;51.55
9839;BME280;4958;48.150;11.506;2023-03-11T03:05:20;94416.72;;;4.66;51.24
9839;BME280;4958;48.150;11.506;2023-03-11T03:07:57;94427.59;;;4.60;51.40
9839;BME280;4958;48.150;11.506;2023-03-11T03:14:05;94430.72;;;4.70;51.15
9839;BME280;4958;48.150;11.506;2023-03-11T03:17:11;94421.03;;;4.65;51.07
9839;BME280;4958;48.150;11.506;2023-03-11T03:23:13;94419.84;;;4.45;51.46
9839;BME280;4958;48.150;11.506;2023-03-11T03:29:16;94436.16;;;4.36;51.93
9839;BME280;4958;48.150;11.506;2023-03-11T03:32:05;94429.94;;;4.38;51.60
9839;BME280;4958;48.150;11.506;2023-03-11T03:34:46;94434.75;;;4.33;51.21
9839;BME280;4958;48.150;11.506;2023-03-11T03:37:26;94419.84;;;4.45;51.62
9839;BME280;4958;48.150;11.506;2023-03-11T03:43:34;94441.66;;;4.47;51.15
9839;BME280;4958;48.150;11.506;2023-03-11T03:46:18;94441.28;;;4.28;51.54
9839;BME280;4958;48.150;11.506;2023-03-11T03:49:25;94448.75;;;4.29;51.47
9839;BME280;4958;48.150;11.506;2023-03-11T03:52:15;94431.88;;;4.28;52.14
9839;BME280;4958;48.150;11.506;2023-03-11T03:55:14;94425.81;;;4.37;51.89
9839;BME280;4958;48.150;11.506;2023-03-11T04:01:40;94424.84;;;4.38;51.34
9839;BME280;4958;48.150;11.506;2023-03-11T04:04:26;94440.63;;;4.34;51.34
9839;BME280;4958;48.150;11.506;2023-03-11T04:07:10;94460.22;;;4.33;51.99
9839;BME280;4958;48.150;11.506;2023-03-11T04:10:12;94455.13;;;4.33;51.71
9839;BME280;4958;48.150;11.506;2023-03-11T04:13:08;94459.66;;;4.46;51.76
9839;BME280;4958;48.150;11.506;2023-03-11T04:22:02;94462.44;;;4.36;52.17
9839;BME280;4958;48.150;11.506;2023-03-11T04:24:41;94463.41;;;4.35;51.93
9839;BME280;4958;48.150;11.506;2023-03-11T04:28:27;94455.91;;;4.42;52.41
9839;BME280;4958;48.150;11.506;2023-03-11T04:35:54;94455.66;;;4.51;52.24
9839;BME280;4958;48.150;11.506;2023-03-11T04:38:47;94458.69;;;4.55;52.17
9839;BME280;4958;48.150;11.506;2023-03-11T04:41:49;94466.00;;;4.58;51.99
9839;BME280;4958;48.150;11.506;2023-03-11T04:44:57;94472.06;;;4.57;52.10
9839;BME280;4958;48.150;11.506;2023-03-11T04:47:56;94468.88;;;4.55;52.05
9839;BME280;4958;48.150;11.506;2023-03-11T04:50:40;94468.03;;;4.63;51.99
9839;BME280;4958;48.150;11.506;2023-03-11T04:53:33;94474.94;;;4.54;52.50
9839;BME280;4958;48.150;11.506;2023-03-11T04:56:40;94476.31;;;4.65;52.21
9839;BME280;4958;48.150;11.506;2023-03-11T05:00:10;94484.13;;;4.63;52.53
9839;BME280;4958;48.150;11.506;2023-03-11T05:03:11;94482.66;;;4.69;52.25
9839;BME280;4958;48.150;11.506;2023-03-11T05:09:28;94489.09;;;4.57;52.86
9839;BME280;4958;48.150;11.506;2023-03-11T05:11:57;94497.06;;;4.62;52.80
9839;BME280;4958;48.150;11.506;2023-03-11T05:18:20;94498.09;;;4.75;52.87
9839;BME280;4958;48.150;11.506;2023-03-11T05:20:47;94500.19;;;4.72;52.67
9839;BME280;4958;48.150;11.506;2023-03-11T05:23:40;94498.88;;;4.76;52.95
9839;BME280;4958;48.150;11.506;2023-03-11T05:32:31;94517.63;;;4.52;53.96
9839;BME280;4958;48.150;11.506;2023-03-11T05:36:53;94526.72;;;4.46;53.77
9839;BME280;4958;48.150;11.506;2023-03-11T05:39:06;94537.22;;;4.51;54.03
9839;BME280;4958;48.150;11.506;2023-03-11T05:41:41;94534.69;;;4.51;53.92
9839;BME280;4958;48.150;11.506;2023-03-11T05:48:30;94538.88;;;4.28;53.33
9839;BME280;4958;48.150;11.506;2023-03-11T05:54:20;94531.22;;;4.36;52.94
9839;BME280;4958;48.150;11.506;2023-03-11T05:57:30;94525.66;;;4.41;52.08
9839;BME280;4958;48.150;11.506;2023-03-11T06:00:06;94530.34;;;4.21;51.46
9839;BME280;4958;48.150;11.506;2023-03-11T06:06:11;94537.28;;;4.35;51.26
9839;BME280;4958;48.150;11.506;2023-03-11T06:09:10;94540.00;;;4.34;50.90
9839;BME280;4958;48.150;11.506;2023-03-11T06:15:06;94542.97;;;4.54;50.37
9839;BME280;4958;48.150;11.506;2023-03-11T06:17:38;94547.91;;;4.55;50.70
9839;BME280;4958;48.150;11.506;2023-03-11T06:28:03;94558.97;;;6.74;50.62
9839;BME280;4958;48.150;11.506;2023-03-11T06:31:12;94568.81;;;5.89;47.76
9839;BME280;4958;48.150;11.506;2023-03-11T06:33:59;94554.34;;;5.36;47.10
9839;BME280;4958;48.150;11.506;2023-03-11T06:37:04;94559.91;;;5.08;48.36
9839;BME280;4958;48.150;11.506;2023-03-11T06:39:53;94572.25;;;4.97;48.05
9839;BME280;4958;48.150;11.506;2023-03-11T06:42:47;94576.34;;;4.75;48.47
9839;BME280;4958;48.150;11.506;2023-03-11T06:45:47;94579.78;;;4.82;48.77
9839;BME280;4958;48.150;11.506;2023-03-11T06:48:15;94580.16;;;4.79;48.47
9839;BME280;4958;48.150;11.506;2023-03-11T06:51:03;94595.72;;;4.84;49.06
9839;BME280;4958;48.150;11.506;2023-03-11T06:53:33;94587.44;;;4.82;48.05
9839;BME280;4958;48.150;11.506;2023-03-11T06:56:25;94605.56;;;4.56;48.15
9839;BME280;4958;48.150;11.506;2023-03-11T06:59:01;94609.50;;;4.67;48.52
9839;BME280;4958;48.150;11.506;2023-03-11T07:01:43;94608.63;;;4.82;48.23
9839;BME280;4958;48.150;11.506;2023-03-11T07:04:23;94612.16;;;4.81;48.31
9839;BME280;4958;48.150;11.506;2023-03-11T07:06:56;94622.13;;;4.60;48.77
9839;BME280;4958;48.150;11.506;2023-03-11T07:09:24;94630.38;;;4.62;49.25
9839;BME280;4958;48.150;11.506;2023-03-11T07:11:54;94631.84;;;4.57;49.81
9839;BME280;4958;48.150;11.506;2023-03-11T07:14:30;94625.09;;;4.72;49.98
9839;BME280;4958;48.150;11.506;2023-03-11T07:20:40;94638.34;;;5.45;49.33
9839;BME280;4958;48.150;11.506;2023-03-11T07:37:06;94664.09;;;5.89;48.42
9839;BME280;4958;48.150;11.506;2023-03-11T07:40:04;94668.00;;;6.61;46.54
9839;BME280;4958;48.150;11.506;2023-03-11T07:50:45;94680.63;;;8.08;43.90
9839;BME280;4958;48.150;11.506;2023-03-11T08:00:54;94690.00;;;8.01;41.70
9839;BME280;4958;48.150;11.506;2023-03-11T08:03:10;94694.91;;;7.81;42.86
9839;BME280;4958;48.150;11.506;2023-03-11T08:06:46;94693.19;;;8.24;41.95
9839;BME280;4958;48.150;11.506;2023-03-11T08:09:29;94691.16;;;8.19;42.17
9839;BME280;4958;48.150;11.506;2023-03-11T08:11:55;94699.59;;;8.84;51.59
9839;BME280;4958;48.150;11.506;2023-03-11T08:14:35;94695.13;;;9.88;50.61
9839;BME280;4958;48.150;11.506;2023-03-11T08:17:28;94691.59;;;9.34;40.55
9839;BME280;4958;48.150;11.506;2023-03-11T08:45:05;94719.66;;;8.10;41.30
9839;BME280;4958;48.150;11.506;2023-03-11T08:48:04;94720.75;;;7.65;41.42
9839;BME280;4958;48.150;11.506;2023-03-11T08:54:30;94725.56;;;7.23;41.59
9839;BME280;4958;48.150;11.506;2023-03-11T08:57:48;94731.03;;;7.20;41.83
9839;BME280;4958;48.150;11.506;2023-03-11T09:51:47;94731.50;;;10.92;32.98
9839;BME280;4958;48.150;11.506;2023-03-11T10:05:57;94747.31;;;10.36;33.60
9839;BME280;4958;48.150;11.506;2023-03-11T10:15:03;94759.81;;;9.91;33.33
9839;BME280;4958;48.150;11.506;2023-03-11T10:23:55;94765.03;;;9.63;33.23
9839;BME280;4958;48.150;11.506;2023-03-11T10:37:13;94769.97;;;10.06;33.02
9839;BME280;4958;48.150;11.506;2023-03-11T10:40:31;94759.41;;;9.81;32.94
9839;BME280;4958;48.150;11.506;2023-03-11T10:44:39;94770.19;;;9.63;32.77
9839;BME280;4958;48.150;11.506;2023-03-11T10:47:14;94766.47;;;9.73;32.80
9839;BME280;4958;48.150;11.506;2023-03-11T11:09:47;94771.47;;;9.81;35.59
9839;BME280;4958;48.150;11.506;2023-03-11T11:16:44;94765.91;;;9.84;35.40
9839;BME280;4958;48.150;11.506;2023-03-11T11:33:46;94776.34;;;10.17;34.56
9839;BME280;4958;48.150;11.506;2023-03-11T11:37:02;94768.28;;;10.39;35.03
9839;BME280;4958;48.150;11.506;2023-03-11T11:43:35;94759.22;;;10.50;34.22
9839;BME280;4958;48.150;11.506;2023-03-11T11:46:27;94756.06;;;10.68;33.14
9839;BME280;4958;48.150;11.506;2023-03-11T11:57:12;94761.19;;;10.35;32.81
9839;BME280;4958;48.150;11.506;2023-03-11T12:05:44;94743.19;;;10.68;32.86
9839;BME280;4958;48.150;11.506;2023-03-11T12:36:01;94738.22;;;11.13;32.20
9839;BME280;4958;48.150;11.506;2023-03-11T12:39:02;94741.22;;;11.10;32.92
9839;BME280;4958;48.150;11.506;2023-03-11T12:41:45;94727.16;;;10.86;32.67
9839;BME280;4958;48.150;11.506;2023-03-11T12:44:39;94730.31;;;10.81;32.67
9839;BME280;4958;48.150;11.506;2023-03-11T12:47:35;94725.16;;;10.81;32.67
9839;BME280;4958;48.150;11.506;2023-03-11T12:50:38;94728.34;;;10.77;33.86
9839;BME280;4958;48.150;11.506;2023-03-11T12:53:45;94718.03;;;11.03;33.82
9839;BME280;4958;48.150;11.506;2023-03-11T13:13:55;94719.59;;;11.11;33.01
9839;BME280;4958;48.150;11.506;2023-03-11T13:20:37;94720.97;;;11.26;32.06
9839;BME280;4958;48.150;11.506;2023-03-11T13:36:53;94736.13;;;11.61;31.98
9839;BME280;4958;48.150;11.506;2023-03-11T13:43:09;94734.59;;;11.53;31.65
9839;BME280;4958;48.150;11.506;2023-03-11T13:46:10;94731.22;;;11.53;31.42
9839;BME280;4958;48.150;11.506;2023-03-11T13:52:49;94737.72;;;11.55;32.01
9839;BME280;4958;48.150;11.506;2023-03-11T14:03:10;94747.09;;;11.43;32.70
9839;BME280;4958;48.150;11.506;2023-03-11T14:06:10;94748.88;;;11.42;32.45
9839;BME280;4958;48.150;11.506;2023-03-11T14:12:16;94745.28;;;11.50;32.77
9839;BME280;4958;48.150;11.506;2023-03-11T14:15:08;94748.47;;;11.46;31.88
9839;BME280;4958;48.150;11.506;2023-03-11T14:25:19;94741.97;;;11.30;31.34
9839;BME280;4958;48.150;11.506;2023-03-11T14:39:22;94754.28;;;10.88;32.15
9839;BME280;4958;48.150;11.506;2023-03-11T14:42:23;94755.47;;;10.99;32.37
9839;BME280;4958;48.150;11.506;2023-03-11T14:45:52;94759.84;;;10.72;33.90
9839;BME280;4958;48.150;11.506;2023-03-11T14:48:57;94754.09;;;10.57;33.63
9839;BME280;4958;48.150;11.506;2023-03-11T14:52:16;94759.63;;;10.60;33.82
9839;BME280;4958;48.150;11.506;2023-03-11T15:01:49;94769.34;;;10.71;33.79
9839;BME280;4958;48.150;11.506;2023-03-11T15:16:40;94775.06;;;11.26;32.71
9839;BME280;4958;48.150;11.506;2023-03-11T15:21:48;94782.00;;;10.53;33.49
9839;BME280;4958;48.150;11.506;2023-03-11T15:25:00;94789.72;;;10.53;33.79
9839;BME280;4958;48.150;11.506;2023-03-11T15:31:51;94793.28;;;10.65;34.83
9839;BME280;4958;48.150;11.506;2023-03-11T15:59:43;94818.31;;;9.48;36.93
9839;BME280;4958;48.150;11.506;2023-03-11T16:05:43;94828.13;;;9.10;37.26
9839;BME280;4958;48.150;11.506;2023-03-11T16:08:57;94825.28;;;8.98;37.52
9839;BME280;4958;48.150;11.506;2023-03-11T16:23:47;94817.09;;;8.88;38.59
9839;BME280;4958;48.150;11.506;2023-03-11T16:33:48;94841.16;;;8.66;38.81
9839;BME280;4958;48.150;11.506;2023-03-11T16:59:25;94870.88;;;9.18;39.27
9839;BME280;4958;48.150;11.506;2023-03-11T17:02:39;94872.28;;;8.56;39.55
9839;BME280;4958;48.150;11.506;2023-03-11T17:08:38;94891.31;;;8.18;40.67
9839;BME280;4958;48.150;11.506;2023-03-11T17:11:30;94888.06;;;8.24;39.99
9839;BME280;4958;48.150;11.506;2023-03-11T17:14:01;94898.72;;;8.27;40.23
9839;BME280;4958;48.150;11.506;2023-03-11T17:20:27;94906.25;;;8.14;40.66
9839;BME280;4958;48.150;11.506;2023-03-11T17:26:19;94931.63;;;8.09;40.86
9839;BME280;4958;48.150;11.506;2023-03-11T17:29:18;94938.72;;;8.07;42.29
9839;BME280;4958;48.150;11.506;2023-03-11T17:32:22;94938.34;;;8.10;41.67
9839;BME280;4958;48.150;11.506;2023-03-11T17:45:17;94959.31;;;7.84;41.59
9839;BME280;4958;48.150;11.506;2023-03-11T17:54:43;94961.75;;;7.78;41.72
9839;BME280;4958;48.150;11.506;2023-03-11T17:57:37;94961.31;;;7.74;41.57
9839;BME280;4958;48.150;11.506;2023-03-11T18:01:57;94959.19;;;7.78;41.42
9839;BME280;4958;48.150;11.506;2023-03-11T18:07:39;94977.31;;;7.53;41.62
9839;BME280;4958;48.150;11.506;2023-03-11T18:10:40;94978.38;;;7.44;41.79
9839;BME280;4958;48.150;11.506;2023-03-11T18:13:37;94992.38;;;7.11;42.73
9839;BME280;4958;48.150;11.506;2023-03-11T18:16:36;94983.19;;;7.16;42.24
9839;BME280;4958;48.150;11.506;2023-03-11T18:22:44;94976.63;;;7.22;42.41
9839;BME280;4958;48.150;11.506;2023-03-11T18:25:41;94978.94;;;7.32;42.53
9839;BME280;4958;48.150;11.506;2023-03-11T18:45:42;94998.66;;;7.31;41.73
9839;BME280;4958;48.150;11.506;2023-03-11T18:49:43;95007.28;;;7.30;41.67
9839;BME280;4958;48.150;11.506;2023-03-11T18:51:21;95011.81;;;7.20;41.65
9839;BME280;4958;48.150;11.506;2023-03-11T18:54:27;95010.69;;;7.22;41.52
9839;BME280;4958;48.150;11.506;2023-03-11T19:03:14;95014.84;;;7.23;41.18
9839;BME280;4958;48.150;11.506;2023-03-11T19:09:13;95007.84;;;7.17;40.94
9839;BME280;4958;48.150;11.506;2023-03-11T19:12:40;95014.63;;;7.10;40.79
9839;BME280;4958;48.150;11.506;2023-03-11T19:15:39;95027.31;;;6.96;41.46
9839;BME280;4958;48.150;11.506;2023-03-11T19:35:22;95050.69;;;6.92;41.54
9839;BME280;4958;48.150;11.506;2023-03-11T19:38:03;95063.78;;;6.98;41.99
9839;BME280;4958;48.150;11.506;2023-03-11T19:40:37;95060.25;;;6.99;41.90
9839;BME280;4958;48.150;11.506;2023-03-11T19:43:27;95057.66;;;7.07;41.86
9839;BME280;4958;48.150;11.506;2023-03-11T19:46:19;95070.97;;;6.94;41.87
9839;BME280;4958;48.150;11.506;2023-03-11T19:49:04;95061.25;;;6.89;42.39
9839;BME280;4958;48.150;11.506;2023-03-11T19:52:19;95064.41;;;7.00;42.04
9839;BME280;4958;48.150;11.506;2023-03-11T19:55:33;95072.38;;;7.05;42.03
9839;BME280;4958;48.150;11.506;2023-03-11T19:58:07;95066.41;;;7.12;41.61
9839;BME280;4958;48.150;11.506;2023-03-11T20:00:40;95066.13;;;7.07;42.23
9839;BME280;4958;48.150;11.506;2023-03-11T20:03:33;95073.03;;;6.99;41.74
9839;BME280;4958;48.150;11.506;2023-03-11T20:06:04;95071.13;;;7.01;41.99
9839;BME280;4958;48.150;11.506;2023-03-11T20:12:17;95078.47;;;7.04;41.76
9839;BME280;4958;48.150;11.506;2023-03-11T20:15:09;95088.94;;;6.86;42.11
9839;BME280;4958;48.150;11.506;2023-03-11T20:20:38;95087.28;;;6.93;42.39
9839;BME280;4958;48.150;11.506;2023-03-11T20:23:37;95092.88;;;6.97;42.54
9839;BME280;4958;48.150;11.506;2023-03-11T20:29:09;95099.41;;;6.68;42.61
9839;BME280;4958;48.150;11.506;2023-03-11T20:29:47;95093.31;;;6.69;42.95
9839;BME280;4958;48.150;11.506;2023-03-11T20:32:20;95094.16;;;6.45;42.83
9839;BME280;4958;48.150;11.506;2023-03-11T20:34:50;95099.19;;;6.14;43.86
9839;BME280;4958;48.150;11.506;2023-03-11T20:37:18;95103.47;;;6.22;43.71
9839;BME280;4958;48.150;11.506;2023-03-11T20:40:07;95091.81;;;6.28;44.11
9839;BME280;4958;48.150;11.506;2023-03-11T20:43:05;95091.31;;;6.32;43.37
9839;BME280;4958;48.150;11.506;2023-03-11T20:45:52;95083.78;;;6.47;43.64
9839;BME280;4958;48.150;11.506;2023-03-11T20:48:25;95086.13;;;6.56;43.32
9839;BME280;4958;48.150;11.506;2023-03-11T20:51:18;95081.25;;;6.31;43.87
9839;BME280;4958;48.150;11.506;2023-03-11T20:54:13;95082.97;;;6.38;43.72
9839;BME280;4958;48.150;11.506;2023-03-11T20:56:54;95089.69;;;6.47;43.79
9839;BME280;4958;48.150;11.506;2023-03-11T20:59:29;95090.47;;;6.56;43.78
9839;BME280;4958;48.150;11.506;2023-03-11T21:02:22;95094.13;;;6.62;44.01
9839;BME280;4958;48.150;11.506;2023-03-11T21:05:25;95092.25;;;6.47;43.54
9839;BME280;4958;48.150;11.506;2023-03-11T21:07:55;95087.78;;;6.41;43.57
9839;BME280;4958;48.150;11.506;2023-03-11T21:10:41;95098.38;;;6.14;43.92
9839;BME280;4958;48.150;11.506;2023-03-11T21:13:22;95097.22;;;5.84;45.05
9839;BME280;4958;48.150;11.506;2023-03-11T21:16:03;95102.44;;;5.58;45.62
9839;BME280;4958;48.150;11.506;2023-03-11T21:18:33;95104.06;;;5.59;45.83
9839;BME280;4958;48.150;11.506;2023-03-11T21:21:30;95105.63;;;5.44;46.26
9839;BME280;4958;48.150;11.506;2023-03-11T21:23:59;95104.81;;;5.35;46.30
9839;BME280;4958;48.150;11.506;2023-03-11T21:27:12;95100.34;;;5.29;46.51
9839;BME280;4958;48.150;11.506;2023-03-11T21:29:45;95108.16;;;5.28;46.62
9839;BME280;4958;48.150;11.506;2023-03-11T21:32:39;95108.97;;;5.44;46.35
9839;BME280;4958;48.150;11.506;2023-03-11T21:35:37;95110.41;;;5.39;47.82
9839;BME280;4958;48.150;11.506;2023-03-11T21:38:35;95123.50;;;5.44;47.50
9839;BME280;4958;48.150;11.506;2023-03-11T21:41:28;95112.63;;;5.42;47.45
9839;BME280;4958;48.150;11.506;2023-03-11T21:47:19;95111.97;;;5.24;47.79
9839;BME280;4958;48.150;11.506;2023-03-11T21:49:55;95110.69;;;5.28;47.98
9839;BME280;4958;48.150;11.506;2023-03-11T21:52:49;95113.28;;;5.36;47.48
9839;BME280;4958;48.150;11.506;2023-03-11T21:55:32;95108.97;;;5.44;47.02
9839;BME280;4958;48.150;11.506;2023-03-11T21:58:04;95120.34;;;5.50;46.93
9839;BME280;4958;48.150;11.506;2023-03-11T22:00:50;95120.81;;;5.62;46.54
9839;BME280;4958;48.150;11.506;2023-03-11T22:03:21;95113.16;;;5.78;45.55
9839;BME280;4958;48.150;11.506;2023-03-11T22:06:10;95111.09;;;5.81;45.50
9839;BME280;4958;48.150;11.506;2023-03-11T22:09:05;95113.03;;;5.87;45.22
9839;BME280;4958;48.150;11.506;2023-03-11T22:11:32;95123.72;;;5.67;46.21
9839;BME280;4958;48.150;11.506;2023-03-11T22:14:13;95109.00;;;5.61;46.28
9839;BME280;4958;48.150;11.506;2023-03-11T22:17:06;95105.97;;;5.49;46.38
9839;BME280;4958;48.150;11.506;2023-03-11T22:19:46;95112.50;;;5.43;46.58
9839;BME280;4958;48.150;11.506;2023-03-11T22:22:13;95105.63;;;5.44;46.26
9839;BME280;4958;48.150;11.506;2023-03-11T22:25:03;95120.19;;;5.51;46.62
9839;BME280;4958;48.150;11.506;2023-03-11T22:27:41;95113.16;;;5.62;46.33
9839;BME280;4958;48.150;11.506;2023-03-11T22:30:21;95117.16;;;5.64;46.14
9839;BME280;4958;48.150;11.506;2023-03-11T22:33:57;95120.03;;;5.69;46.09
9839;BME280;4958;48.150;11.506;2023-03-11T22:36:28;95127.69;;;5.77;45.54
9839;BME280;4958;48.150;11.506;2023-03-11T22:38:58;95124.84;;;5.80;45.37
9839;BME280;4958;48.150;11.506;2023-03-11T22:48:07;95121.91;;;5.35;46.75
9839;BME280;4958;48.150;11.506;2023-03-11T22:50:40;95126.06;;;5.44;46.64
9839;BME280;4958;48.150;11.506;2023-03-11T22:53:33;95125.28;;;5.51;47.01
9839;BME280;4958;48.150;11.506;2023-03-11T22:56:34;95138.72;;;5.70;46.28
9839;BME280;4958;48.150;11.506;2023-03-11T22:59:24;95140.97;;;5.73;46.37
9839;BME280;4958;48.150;11.506;2023-03-11T23:01:55;95140.97;;;5.81;46.10
9839;BME280;4958;48.150;11.506;2023-03-11T23:04:42;95138.09;;;5.84;45.66
9839;BME280;4958;48.150;11.506;2023-03-11T23:07:09;95138.88;;;5.84;45.80
9839;BME280;4958;48.150;11.506;2023-03-11T23:12:17;95143.66;;;5.79;46.54
9839;BME280;4958;48.150;11.506;2023-03-11T23:15:13;95141.91;;;5.80;46.57
9839;BME280;4958;48.150;11.506;2023-03-11T23:17:42;95146.06;;;5.81;46.65
9839;BME280;4958;48.150;11.506;2023-03-11T23:20:24;95146.56;;;5.84;45.73
9839;BME280;4958;48.150;11.506;2023-03-11T23:22:51;95149.09;;;5.84;46.21
9839;BME280;4958;48.150;11.506;2023-03-11T23:25:25;95149.56;;;5.80;46.70
9839;BME280;4958;48.150;11.506;2023-03-11T23:27:51;95153.09;;;5.79;46.30
9839;BME280;4958;48.150;11.506;2023-03-11T23:30:38;95145.75;;;5.76;46.18
9839;BME280;4958;48.150;11.506;2023-03-11T23:35:58;95146.22;;;5.71;46.10
9839;BME280;4958;48.150;11.506;2023-03-11T23:36:32;95144.59;;;5.62;46.69
9839;BME280;4958;48.150;11.506;2023-03-11T23:39:26;95141.22;;;5.45;46.73
9839;BME280;4958;48.150;11.506;2023-03-11T23:45:01;95147.81;;;5.56;46.96
9839;BME280;4958;48.150;11.506;2023-03-11T23:48:16;95148.75;;;5.55;46.70
9839;BME280;4958;48.150;11.506;2023-03-11T23:51:17;95153.06;;;5.54;46.61
9839;BME280;4958;48.150;11.506;2023-03-11T23:57:20;95156.56;;;5.53;46.73
